sensor_id;sensor_type;location;lat;lon;timestamp;P1;durP1;ratioP1;P2;durP2;ratioP2
18822;SDS011;9540;51.550;7.980;2022-10-22T00:02:13;10.00;;;2.53;;
18822;SDS011;9540;51.550;7.980;2022-10-22T00:04:44;9.48;;;2.15;;
18822;SDS011;9540;51.550;7.980;2022-10-22T00:07:11;10.98;;;2.05;;
18822;SDS011;9540;51.550;7.980;2022-10-22T00:09:39;7.45;;;2.22;;
18822;SDS011;9540;51.550;7.980;2022-10-22T00:12:06;14.85;;;3.42;;
18822;SDS011;9540;51.550;7.980;2022-10-22T00:14:34;4.10;;;2.92;;
18822;SDS011;9540;51.550;7.980;2022-10-22T00:17:01;9.40;;;3.15;;
18822;SDS011;9540;51.550;7.980;2022-10-22T00:19:28;9.77;;;2.58;;
18822;SDS011;9540;51.550;7.980;2022-10-22T00:21:55;3.60;;;2.30;;
18822;SDS011;9540;51.550;7.980;2022-10-22T00:24:23;9.73;;;2.75;;
18822;SDS011;9540;51.550;7.980;2022-10-22T00:26:51;12.07;;;2.30;;
18822;SDS011;9540;51.550;7.980;2022-10-22T00:29:18;8.60;;;2.28;;
18822;SDS011;9540;51.550;7.980;2022-10-22T00:31:46;3.53;;;2.13;;
18822;SDS011;9540;51.550;7.980;2022-10-22T00:34:15;8.25;;;2.55;;
18822;SDS011;9540;51.550;7.980;2022-10-22T00:36:44;6.50;;;2.33;;
18822;SDS011;9540;51.550;7.980;2022-10-22T00:39:11;6.53;;;2.30;;
18822;SDS011;9540;51.550;7.980;2022-10-22T00:41:40;5.95;;;2.50;;
18822;SDS011;9540;51.550;7.980;2022-10-22T00:47:09;6.30;;;2.47;;
18822;SDS011;9540;51.550;7.980;2022-10-22T00:49:36;5.97;;;3.20;;
18822;SDS011;9540;51.550;7.980;2022-10-22T00:52:03;6.20;;;2.60;;
18822;SDS011;9540;51.550;7.980;2022-10-22T00:54:30;6.93;;;2.95;;
18822;SDS011;9540;51.550;7.980;2022-10-22T00:56:58;6.63;;;2.90;;
18822;SDS011;9540;51.550;7.980;2022-10-22T00:59:26;9.40;;;3.10;;
18822;SDS011;9540;51.550;7.980;2022-10-22T01:01:53;10.27;;;3.45;;
18822;SDS011;9540;51.550;7.980;2022-10-22T01:04:22;4.93;;;3.05;;
18822;SDS011;9540;51.550;7.980;2022-10-22T01:06:49;10.68;;;3.17;;
18822;SDS011;9540;51.550;7.980;2022-10-22T01:09:18;7.80;;;3.25;;
18822;SDS011;9540;51.550;7.980;2022-10-22T01:11:56;7.00;;;3.10;;
18822;SDS011;9540;51.550;7.980;2022-10-22T01:14:28;8.02;;;3.60;;
18822;SDS011;9540;51.550;7.980;2022-10-22T01:17:01;11.35;;;3.45;;
18822;SDS011;9540;51.550;7.980;2022-10-22T01:19:38;5.93;;;3.38;;
18822;SDS011;9540;51.550;7.980;2022-10-22T01:22:17;7.78;;;3.25;;
18822;SDS011;9540;51.550;7.980;2022-10-22T01:24:50;9.75;;;4.20;;
18822;SDS011;9540;51.550;7.980;2022-10-22T01:27:24;10.73;;;3.78;;
18822;SDS011;9540;51.550;7.980;2022-10-22T01:30:02;4.55;;;3.15;;
18822;SDS011;9540;51.550;7.980;2022-10-22T01:32:32;7.88;;;2.97;;
18822;SDS011;9540;51.550;7.980;2022-10-22T01:35:04;7.47;;;2.83;;
18822;SDS011;9540;51.550;7.980;2022-10-22T01:37:36;10.02;;;3.25;;
18822;SDS011;9540;51.550;7.980;2022-10-22T01:40:07;5.93;;;3.13;;
18822;SDS011;9540;51.550;7.980;2022-10-22T01:42:35;10.15;;;3.50;;
18822;SDS011;9540;51.550;7.980;2022-10-22T01:45:09;4.72;;;3.53;;
18822;SDS011;9540;51.550;7.980;2022-10-22T01:47:38;8.32;;;3.70;;
18822;SDS011;9540;51.550;7.980;2022-10-22T01:50:15;7.97;;;3.25;;
18822;SDS011;9540;51.550;7.980;2022-10-22T01:53:17;8.48;;;3.28;;
18822;SDS011;9540;51.550;7.980;2022-10-22T01:55:56;7.65;;;3.47;;
18822;SDS011;9540;51.550;7.980;2022-10-22T01:58:36;6.35;;;3.20;;
18822;SDS011;9540;51.550;7.980;2022-10-22T02:01:14;9.57;;;3.13;;
18822;SDS011;9540;51.550;7.980;2022-10-22T02:03:48;8.75;;;3.55;;
18822;SDS011;9540;51.550;7.980;2022-10-22T02:06:20;6.68;;;3.15;;
18822;SDS011;9540;51.550;7.980;2022-10-22T02:08:50;7.20;;;4.03;;
18822;SDS011;9540;51.550;7.980;2022-10-22T02:11:18;9.05;;;3.38;;
18822;SDS011;9540;51.550;7.980;2022-10-22T02:13:46;6.90;;;4.57;;
18822;SDS011;9540;51.550;7.980;2022-10-22T02:16:17;7.82;;;3.88;;
18822;SDS011;9540;51.550;7.980;2022-10-22T02:18:55;10.65;;;4.40;;
18822;SDS011;9540;51.550;7.980;2022-10-22T02:21:25;15.98;;;5.05;;
18822;SDS011;9540;51.550;7.980;2022-10-22T02:23:53;6.05;;;3.90;;
18822;SDS011;9540;51.550;7.980;2022-10-22T02:26:21;11.88;;;3.67;;
18822;SDS011;9540;51.550;7.980;2022-10-22T02:28:55;10.98;;;3.72;;
18822;SDS011;9540;51.550;7.980;2022-10-22T02:31:30;10.88;;;3.90;;
18822;SDS011;9540;51.550;7.980;2022-10-22T02:34:01;8.27;;;3.60;;
18822;SDS011;9540;51.550;7.980;2022-10-22T02:36:34;11.60;;;3.78;;
18822;SDS011;9540;51.550;7.980;2022-10-22T02:39:02;9.65;;;4.43;;
18822;SDS011;9540;51.550;7.980;2022-10-22T02:41:31;9.80;;;5.32;;
18822;SDS011;9540;51.550;7.980;2022-10-22T02:43:59;10.68;;;5.82;;
18822;SDS011;9540;51.550;7.980;2022-10-22T02:46:26;8.73;;;5.65;;
18822;SDS011;9540;51.550;7.980;2022-10-22T02:48:55;8.38;;;5.80;;
18822;SDS011;9540;51.550;7.980;2022-10-22T02:51:22;8.70;;;5.82;;
18822;SDS011;9540;51.550;7.980;2022-10-22T02:53:49;14.57;;;4.43;;
18822;SDS011;9540;51.550;7.980;2022-10-22T02:56:16;17.67;;;5.03;;
18822;SDS011;9540;51.550;7.980;2022-10-22T02:58:43;9.13;;;4.50;;
18822;SDS011;9540;51.550;7.980;2022-10-22T03:01:10;10.07;;;4.20;;
18822;SDS011;9540;51.550;7.980;2022-10-22T03:03:38;9.00;;;4.57;;
18822;SDS011;9540;51.550;7.980;2022-10-22T03:06:06;8.35;;;4.70;;
18822;SDS011;9540;51.550;7.980;2022-10-22T03:08:33;14.25;;;4.18;;
18822;SDS011;9540;51.550;7.980;2022-10-22T03:11:00;11.10;;;4.80;;
18822;SDS011;9540;51.550;7.980;2022-10-22T03:13:27;8.15;;;4.65;;
18822;SDS011;9540;51.550;7.980;2022-10-22T03:15:54;9.85;;;5.75;;
18822;SDS011;9540;51.550;7.980;2022-10-22T03:18:21;5.82;;;4.70;;
18822;SDS011;9540;51.550;7.980;2022-10-22T03:20:49;9.65;;;5.30;;
18822;SDS011;9540;51.550;7.980;2022-10-22T03:23:17;9.55;;;4.65;;
18822;SDS011;9540;51.550;7.980;2022-10-22T03:25:45;18.40;;;5.78;;
18822;SDS011;9540;51.550;7.980;2022-10-22T03:28:14;9.23;;;4.63;;
18822;SDS011;9540;51.550;7.980;2022-10-22T03:30:43;7.60;;;4.95;;
18822;SDS011;9540;51.550;7.980;2022-10-22T03:33:10;9.43;;;4.13;;
18822;SDS011;9540;51.550;7.980;2022-10-22T03:35:39;7.80;;;4.43;;
18822;SDS011;9540;51.550;7.980;2022-10-22T03:38:11;8.75;;;3.90;;
18822;SDS011;9540;51.550;7.980;2022-10-22T03:40:38;12.48;;;3.80;;
18822;SDS011;9540;51.550;7.980;2022-10-22T03:43:06;7.45;;;3.40;;
18822;SDS011;9540;51.550;7.980;2022-10-22T03:45:33;11.35;;;3.70;;
18822;SDS011;9540;51.550;7.980;2022-10-22T03:48:01;6.47;;;3.50;;
18822;SDS011;9540;51.550;7.980;2022-10-22T03:50:28;6.38;;;3.60;;
18822;SDS011;9540;51.550;7.980;2022-10-22T03:52:55;3.65;;;3.28;;
18822;SDS011;9540;51.550;7.980;2022-10-22T03:55:24;4.47;;;3.25;;
18822;SDS011;9540;51.550;7.980;2022-10-22T03:57:51;9.27;;;4.20;;
18822;SDS011;9540;51.550;7.980;2022-10-22T04:00:18;6.80;;;3.33;;
18822;SDS011;9540;51.550;7.980;2022-10-22T04:02:45;12.38;;;3.05;;
18822;SDS011;9540;51.550;7.980;2022-10-22T04:05:12;8.20;;;3.80;;
18822;SDS011;9540;51.550;7.980;2022-10-22T04:07:39;14.40;;;4.30;;
18822;SDS011;9540;51.550;7.980;2022-10-22T04:10:06;10.23;;;4.15;;
18822;SDS011;9540;51.550;7.980;2022-10-22T04:12:35;6.30;;;4.18;;
18822;SDS011;9540;51.550;7.980;2022-10-22T04:15:02;10.77;;;4.13;;
18822;SDS011;9540;51.550;7.980;2022-10-22T04:17:32;10.93;;;4.25;;
18822;SDS011;9540;51.550;7.980;2022-10-22T04:20:00;10.00;;;3.83;;
18822;SDS011;9540;51.550;7.980;2022-10-22T04:22:27;5.75;;;3.53;;
18822;SDS011;9540;51.550;7.980;2022-10-22T04:24:54;8.55;;;4.00;;
18822;SDS011;9540;51.550;7.980;2022-10-22T04:27:21;6.30;;;4.32;;
18822;SDS011;9540;51.550;7.980;2022-10-22T04:29:50;6.55;;;4.20;;
18822;SDS011;9540;51.550;7.980;2022-10-22T04:32:17;5.05;;;3.42;;
18822;SDS011;9540;51.550;7.980;2022-10-22T04:34:44;7.65;;;4.00;;
18822;SDS011;9540;51.550;7.980;2022-10-22T04:37:11;6.63;;;4.15;;
18822;SDS011;9540;51.550;7.980;2022-10-22T04:39:38;6.80;;;4.53;;
18822;SDS011;9540;51.550;7.980;2022-10-22T04:42:05;7.78;;;4.47;;
18822;SDS011;9540;51.550;7.980;2022-10-22T04:44:32;6.47;;;4.07;;
18822;SDS011;9540;51.550;7.980;2022-10-22T04:47:01;5.82;;;4.30;;
18822;SDS011;9540;51.550;7.980;2022-10-22T04:49:28;10.18;;;3.97;;
18822;SDS011;9540;51.550;7.980;2022-10-22T04:51:56;12.55;;;5.15;;
18822;SDS011;9540;51.550;7.980;2022-10-22T04:54:22;13.25;;;5.53;;
18822;SDS011;9540;51.550;7.980;2022-10-22T04:56:50;12.18;;;5.47;;
18822;SDS011;9540;51.550;7.980;2022-10-22T04:59:17;8.82;;;5.78;;
18822;SDS011;9540;51.550;7.980;2022-10-22T05:01:43;9.00;;;5.70;;
18822;SDS011;9540;51.550;7.980;2022-10-22T05:04:13;10.57;;;6.28;;
18822;SDS011;9540;51.550;7.980;2022-10-22T05:06:41;8.93;;;5.80;;
18822;SDS011;9540;51.550;7.980;2022-10-22T05:09:10;8.63;;;5.00;;
18822;SDS011;9540;51.550;7.980;2022-10-22T05:11:38;8.98;;;5.30;;
18822;SDS011;9540;51.550;7.980;2022-10-22T05:14:09;10.57;;;5.43;;
18822;SDS011;9540;51.550;7.980;2022-10-22T05:16:37;9.27;;;6.00;;
18822;SDS011;9540;51.550;7.980;2022-10-22T05:19:04;7.90;;;6.15;;
18822;SDS011;9540;51.550;7.980;2022-10-22T05:21:33;11.40;;;5.97;;
18822;SDS011;9540;51.550;7.980;2022-10-22T05:24:00;8.13;;;6.38;;
18822;SDS011;9540;51.550;7.980;2022-10-22T05:26:28;11.77;;;6.35;;
18822;SDS011;9540;51.550;7.980;2022-10-22T05:28:55;13.15;;;6.85;;
18822;SDS011;9540;51.550;7.980;2022-10-22T05:31:22;12.00;;;6.60;;
18822;SDS011;9540;51.550;7.980;2022-10-22T05:33:49;14.57;;;7.22;;
18822;SDS011;9540;51.550;7.980;2022-10-22T05:36:17;13.40;;;7.63;;
18822;SDS011;9540;51.550;7.980;2022-10-22T05:38:47;12.57;;;7.82;;
18822;SDS011;9540;51.550;7.980;2022-10-22T05:41:15;10.60;;;7.05;;
18822;SDS011;9540;51.550;7.980;2022-10-22T05:43:43;14.05;;;7.10;;
18822;SDS011;9540;51.550;7.980;2022-10-22T05:46:11;12.75;;;7.50;;
18822;SDS011;9540;51.550;7.980;2022-10-22T05:48:40;13.38;;;7.50;;
18822;SDS011;9540;51.550;7.980;2022-10-22T05:51:08;12.23;;;6.75;;
18822;SDS011;9540;51.550;7.980;2022-10-22T05:53:36;8.48;;;6.57;;
18822;SDS011;9540;51.550;7.980;2022-10-22T05:56:06;8.02;;;6.07;;
18822;SDS011;9540;51.550;7.980;2022-10-22T05:58:36;9.38;;;5.65;;
18822;SDS011;9540;51.550;7.980;2022-10-22T06:01:03;9.65;;;6.32;;
18822;SDS011;9540;51.550;7.980;2022-10-22T06:03:31;11.60;;;6.90;;
18822;SDS011;9540;51.550;7.980;2022-10-22T06:05:59;20.05;;;6.85;;
18822;SDS011;9540;51.550;7.980;2022-10-22T06:08:27;12.43;;;6.35;;
18822;SDS011;9540;51.550;7.980;2022-10-22T06:10:55;12.45;;;6.63;;
18822;SDS011;9540;51.550;7.980;2022-10-22T06:13:23;12.02;;;6.68;;
18822;SDS011;9540;51.550;7.980;2022-10-22T06:15:50;10.77;;;6.20;;
18822;SDS011;9540;51.550;7.980;2022-10-22T06:18:17;14.93;;;7.20;;
18822;SDS011;9540;51.550;7.980;2022-10-22T06:20:45;11.38;;;6.90;;
18822;SDS011;9540;51.550;7.980;2022-10-22T06:23:12;9.50;;;6.90;;
18822;SDS011;9540;51.550;7.980;2022-10-22T06:25:40;10.20;;;6.65;;
18822;SDS011;9540;51.550;7.980;2022-10-22T06:28:07;14.25;;;6.45;;
18822;SDS011;9540;51.550;7.980;2022-10-22T06:30:37;9.40;;;6.32;;
18822;SDS011;9540;51.550;7.980;2022-10-22T06:33:04;9.07;;;5.78;;
18822;SDS011;9540;51.550;7.980;2022-10-22T06:35:31;10.65;;;6.00;;
18822;SDS011;9540;51.550;7.980;2022-10-22T06:37:58;10.38;;;5.88;;
18822;SDS011;9540;51.550;7.980;2022-10-22T06:40:25;8.90;;;5.57;;
18822;SDS011;9540;51.550;7.980;2022-10-22T06:42:52;11.55;;;5.63;;
18822;SDS011;9540;51.550;7.980;2022-10-22T06:45:20;8.55;;;5.72;;
18822;SDS011;9540;51.550;7.980;2022-10-22T06:47:49;12.85;;;5.78;;
18822;SDS011;9540;51.550;7.980;2022-10-22T06:50:16;10.43;;;5.80;;
18822;SDS011;9540;51.550;7.980;2022-10-22T06:52:44;10.98;;;5.90;;
18822;SDS011;9540;51.550;7.980;2022-10-22T06:55:11;8.68;;;5.32;;
18822;SDS011;9540;51.550;7.980;2022-10-22T06:57:38;8.48;;;5.78;;
18822;SDS011;9540;51.550;7.980;2022-10-22T07:00:06;11.73;;;5.50;;
18822;SDS011;9540;51.550;7.980;2022-10-22T07:02:34;8.93;;;5.15;;
18822;SDS011;9540;51.550;7.980;2022-10-22T07:05:02;8.27;;;5.20;;
18822;SDS011;9540;51.550;7.980;2022-10-22T07:07:29;10.57;;;5.70;;
18822;SDS011;9540;51.550;7.980;2022-10-22T07:09:56;8.10;;;4.72;;
18822;SDS011;9540;51.550;7.980;2022-10-22T07:12:23;8.13;;;4.68;;
18822;SDS011;9540;51.550;7.980;2022-10-22T07:14:51;8.57;;;4.72;;
18822;SDS011;9540;51.550;7.980;2022-10-22T07:17:18;6.85;;;4.30;;
18822;SDS011;9540;51.550;7.980;2022-10-22T07:19:45;11.02;;;5.03;;
18822;SDS011;9540;51.550;7.980;2022-10-22T07:22:13;10.02;;;3.90;;
18822;SDS011;9540;51.550;7.980;2022-10-22T07:24:40;7.00;;;4.10;;
18822;SDS011;9540;51.550;7.980;2022-10-22T07:27:07;7.45;;;4.18;;
18822;SDS011;9540;51.550;7.980;2022-10-22T07:29:34;8.65;;;4.18;;
18822;SDS011;9540;51.550;7.980;2022-10-22T07:32:01;6.30;;;4.03;;
18822;SDS011;9540;51.550;7.980;2022-10-22T07:34:28;13.10;;;3.83;;
18822;SDS011;9540;51.550;7.980;2022-10-22T07:36:55;7.07;;;3.88;;
18822;SDS011;9540;51.550;7.980;2022-10-22T07:39:23;9.88;;;4.20;;
18822;SDS011;9540;51.550;7.980;2022-10-22T07:41:50;11.25;;;3.65;;
18822;SDS011;9540;51.550;7.980;2022-10-22T07:44:17;10.23;;;3.53;;
18822;SDS011;9540;51.550;7.980;2022-10-22T07:46:44;10.23;;;4.25;;
18822;SDS011;9540;51.550;7.980;2022-10-22T07:49:11;15.10;;;3.88;;
18822;SDS011;9540;51.550;7.980;2022-10-22T07:51:38;11.88;;;4.15;;
18822;SDS011;9540;51.550;7.980;2022-10-22T07:54:05;9.43;;;3.53;;
18822;SDS011;9540;51.550;7.980;2022-10-22T07:56:33;5.95;;;3.25;;
18822;SDS011;9540;51.550;7.980;2022-10-22T07:59:00;8.95;;;2.95;;
18822;SDS011;9540;51.550;7.980;2022-10-22T08:01:27;4.38;;;2.70;;
18822;SDS011;9540;51.550;7.980;2022-10-22T08:03:54;6.88;;;3.08;;
18822;SDS011;9540;51.550;7.980;2022-10-22T08:06:21;7.20;;;3.35;;
18822;SDS011;9540;51.550;7.980;2022-10-22T08:08:48;7.07;;;2.65;;
18822;SDS011;9540;51.550;7.980;2022-10-22T08:11:15;10.85;;;2.95;;
18822;SDS011;9540;51.550;7.980;2022-10-22T08:13:44;9.55;;;2.60;;
18822;SDS011;9540;51.550;7.980;2022-10-22T08:16:11;8.00;;;2.60;;
18822;SDS011;9540;51.550;7.980;2022-10-22T08:18:38;4.18;;;2.35;;
18822;SDS011;9540;51.550;7.980;2022-10-22T08:21:05;4.97;;;2.85;;
18822;SDS011;9540;51.550;7.980;2022-10-22T08:23:32;13.00;;;2.13;;
18822;SDS011;9540;51.550;7.980;2022-10-22T08:25:59;4.85;;;2.42;;
18822;SDS011;9540;51.550;7.980;2022-10-22T08:28:27;5.32;;;2.67;;
18822;SDS011;9540;51.550;7.980;2022-10-22T08:30:56;6.32;;;2.33;;
18822;SDS011;9540;51.550;7.980;2022-10-22T08:33:23;9.82;;;2.17;;
18822;SDS011;9540;51.550;7.980;2022-10-22T08:35:50;7.15;;;2.50;;
18822;SDS011;9540;51.550;7.980;2022-10-22T08:38:18;11.88;;;3.08;;
18822;SDS011;9540;51.550;7.980;2022-10-22T08:40:46;11.30;;;2.88;;
18822;SDS011;9540;51.550;7.980;2022-10-22T08:43:22;8.32;;;2.33;;
18822;SDS011;9540;51.550;7.980;2022-10-22T08:46:08;7.80;;;2.78;;
18822;SDS011;9540;51.550;7.980;2022-10-22T08:48:46;7.97;;;2.38;;
18822;SDS011;9540;51.550;7.980;2022-10-22T08:51:16;8.50;;;2.80;;
18822;SDS011;9540;51.550;7.980;2022-10-22T08:53:52;3.15;;;2.20;;
18822;SDS011;9540;51.550;7.980;2022-10-22T08:56:32;4.25;;;1.70;;
18822;SDS011;9540;51.550;7.980;2022-10-22T08:59:03;6.45;;;2.05;;
18822;SDS011;9540;51.550;7.980;2022-10-22T09:01:38;6.72;;;2.35;;
18822;SDS011;9540;51.550;7.980;2022-10-22T09:04:10;5.45;;;2.10;;
18822;SDS011;9540;51.550;7.980;2022-10-22T09:06:43;5.03;;;2.10;;
18822;SDS011;9540;51.550;7.980;2022-10-22T09:09:11;6.10;;;2.05;;
18822;SDS011;9540;51.550;7.980;2022-10-22T09:11:43;5.53;;;2.13;;
18822;SDS011;9540;51.550;7.980;2022-10-22T09:14:13;8.98;;;2.60;;
18822;SDS011;9540;51.550;7.980;2022-10-22T09:16:48;7.15;;;2.30;;
18822;SDS011;9540;51.550;7.980;2022-10-22T09:19:28;4.95;;;2.20;;
18822;SDS011;9540;51.550;7.980;2022-10-22T09:22:03;9.93;;;3.15;;
18822;SDS011;9540;51.550;7.980;2022-10-22T09:24:39;8.60;;;2.55;;
18822;SDS011;9540;51.550;7.980;2022-10-22T09:27:11;10.45;;;2.15;;
18822;SDS011;9540;51.550;7.980;2022-10-22T09:29:39;4.88;;;1.92;;
18822;SDS011;9540;51.550;7.980;2022-10-22T09:32:08;6.32;;;1.75;;
18822;SDS011;9540;51.550;7.980;2022-10-22T09:34:35;7.25;;;2.33;;
18822;SDS011;9540;51.550;7.980;2022-10-22T09:37:04;8.82;;;2.35;;
18822;SDS011;9540;51.550;7.980;2022-10-22T09:39:33;5.25;;;2.30;;
18822;SDS011;9540;51.550;7.980;2022-10-22T09:42:03;9.23;;;2.30;;
18822;SDS011;9540;51.550;7.980;2022-10-22T09:44:32;6.75;;;2.10;;
18822;SDS011;9540;51.550;7.980;2022-10-22T09:47:02;8.48;;;2.30;;
18822;SDS011;9540;51.550;7.980;2022-10-22T09:49:33;10.30;;;2.40;;
18822;SDS011;9540;51.550;7.980;2022-10-22T09:52:01;7.30;;;2.35;;
18822;SDS011;9540;51.550;7.980;2022-10-22T09:54:41;11.05;;;2.20;;
18822;SDS011;9540;51.550;7.980;2022-10-22T09:57:12;5.53;;;2.03;;
18822;SDS011;9540;51.550;7.980;2022-10-22T09:59:42;9.52;;;2.13;;
18822;SDS011;9540;51.550;7.980;2022-10-22T10:02:13;7.15;;;2.40;;
18822;SDS011;9540;51.550;7.980;2022-10-22T10:04:45;5.60;;;2.35;;
18822;SDS011;9540;51.550;7.980;2022-10-22T10:07:14;11.95;;;3.03;;
18822;SDS011;9540;51.550;7.980;2022-10-22T10:09:42;4.93;;;2.60;;
18822;SDS011;9540;51.550;7.980;2022-10-22T10:12:13;6.63;;;2.42;;
18822;SDS011;9540;51.550;7.980;2022-10-22T10:14:52;12.73;;;3.15;;
18822;SDS011;9540;51.550;7.980;2022-10-22T10:17:26;12.55;;;5.95;;
18822;SDS011;9540;51.550;7.980;2022-10-22T10:20:07;12.02;;;5.05;;
18822;SDS011;9540;51.550;7.980;2022-10-22T10:22:45;10.68;;;3.67;;
18822;SDS011;9540;51.550;7.980;2022-10-22T10:25:23;8.70;;;3.05;;
18822;SDS011;9540;51.550;7.980;2022-10-22T10:27:59;7.05;;;3.13;;
18822;SDS011;9540;51.550;7.980;2022-10-22T10:30:34;9.75;;;3.35;;
18822;SDS011;9540;51.550;7.980;2022-10-22T10:33:12;15.23;;;3.42;;
18822;SDS011;9540;51.550;7.980;2022-10-22T10:35:52;11.77;;;4.70;;
18822;SDS011;9540;51.550;7.980;2022-10-22T10:38:35;12.00;;;3.47;;
18822;SDS011;9540;51.550;7.980;2022-10-22T10:41:18;12.82;;;3.92;;
18822;SDS011;9540;51.550;7.980;2022-10-22T10:44:02;6.38;;;3.03;;
18822;SDS011;9540;51.550;7.980;2022-10-22T10:46:51;5.95;;;2.75;;
18822;SDS011;9540;51.550;7.980;2022-10-22T10:49:25;9.77;;;3.00;;
18822;SDS011;9540;51.550;7.980;2022-10-22T10:52:00;6.78;;;3.38;;
18822;SDS011;9540;51.550;7.980;2022-10-22T10:54:38;12.45;;;3.42;;
18822;SDS011;9540;51.550;7.980;2022-10-22T10:57:12;6.57;;;3.15;;
18822;SDS011;9540;51.550;7.980;2022-10-22T10:59:51;6.47;;;2.80;;
18822;SDS011;9540;51.550;7.980;2022-10-22T11:02:33;10.52;;;3.20;;
18822;SDS011;9540;51.550;7.980;2022-10-22T11:05:33;5.68;;;2.55;;
18822;SDS011;9540;51.550;7.980;2022-10-22T11:08:08;5.82;;;3.25;;
18822;SDS011;9540;51.550;7.980;2022-10-22T11:10:41;6.65;;;2.70;;
18822;SDS011;9540;51.550;7.980;2022-10-22T11:13:14;7.65;;;2.85;;
18822;SDS011;9540;51.550;7.980;2022-10-22T11:15:47;10.60;;;2.70;;
18822;SDS011;9540;51.550;7.980;2022-10-22T11:18:19;7.32;;;2.65;;
18822;SDS011;9540;51.550;7.980;2022-10-22T11:20:55;7.07;;;2.95;;
18822;SDS011;9540;51.550;7.980;2022-10-22T11:23:33;7.97;;;2.28;;
18822;SDS011;9540;51.550;7.980;2022-10-22T11:26:07;5.95;;;2.58;;
18822;SDS011;9540;51.550;7.980;2022-10-22T11:28:40;5.30;;;2.45;;
18822;SDS011;9540;51.550;7.980;2022-10-22T11:31:12;11.10;;;2.70;;
18822;SDS011;9540;51.550;7.980;2022-10-22T11:33:42;8.30;;;2.60;;
18822;SDS011;9540;51.550;7.980;2022-10-22T11:36:14;3.65;;;1.90;;
18822;SDS011;9540;51.550;7.980;2022-10-22T11:38:45;6.22;;;1.92;;
18822;SDS011;9540;51.550;7.980;2022-10-22T11:41:12;10.60;;;2.22;;
18822;SDS011;9540;51.550;7.980;2022-10-22T11:43:55;7.40;;;2.30;;
18822;SDS011;9540;51.550;7.980;2022-10-22T11:46:25;5.78;;;1.92;;
18822;SDS011;9540;51.550;7.980;2022-10-22T11:48:59;5.63;;;1.90;;
18822;SDS011;9540;51.550;7.980;2022-10-22T11:51:31;7.10;;;1.80;;
18822;SDS011;9540;51.550;7.980;2022-10-22T11:54:02;6.15;;;2.20;;
18822;SDS011;9540;51.550;7.980;2022-10-22T11:56:51;11.10;;;3.47;;
18822;SDS011;9540;51.550;7.980;2022-10-22T11:59:39;9.10;;;2.00;;
18822;SDS011;9540;51.550;7.980;2022-10-22T12:05:19;6.82;;;2.67;;
18822;SDS011;9540;51.550;7.980;2022-10-22T12:08:11;6.82;;;2.33;;
18822;SDS011;9540;51.550;7.980;2022-10-22T12:11:11;9.60;;;2.80;;
18822;SDS011;9540;51.550;7.980;2022-10-22T12:16:43;8.45;;;2.75;;
18822;SDS011;9540;51.550;7.980;2022-10-22T12:19:12;7.57;;;3.35;;
18822;SDS011;9540;51.550;7.980;2022-10-22T12:21:42;13.70;;;5.75;;
18822;SDS011;9540;51.550;7.980;2022-10-22T12:24:13;11.07;;;4.10;;
18822;SDS011;9540;51.550;7.980;2022-10-22T12:26:43;11.55;;;4.10;;
18822;SDS011;9540;51.550;7.980;2022-10-22T12:29:11;23.73;;;12.85;;
18822;SDS011;9540;51.550;7.980;2022-10-22T12:31:41;17.88;;;7.80;;
18822;SDS011;9540;51.550;7.980;2022-10-22T12:34:12;5.32;;;2.10;;
18822;SDS011;9540;51.550;7.980;2022-10-22T12:36:40;10.23;;;3.22;;
18822;SDS011;9540;51.550;7.980;2022-10-22T12:39:11;6.22;;;2.13;;
18822;SDS011;9540;51.550;7.980;2022-10-22T12:41:39;9.77;;;2.28;;
18822;SDS011;9540;51.550;7.980;2022-10-22T12:44:10;5.35;;;1.90;;
18822;SDS011;9540;51.550;7.980;2022-10-22T12:46:39;6.72;;;1.90;;
18822;SDS011;9540;51.550;7.980;2022-10-22T12:49:09;5.20;;;1.60;;
18822;SDS011;9540;51.550;7.980;2022-10-22T12:51:40;6.32;;;1.70;;
18822;SDS011;9540;51.550;7.980;2022-10-22T12:54:09;6.15;;;2.10;;
18822;SDS011;9540;51.550;7.980;2022-10-22T12:56:45;5.03;;;1.90;;
18822;SDS011;9540;51.550;7.980;2022-10-22T12:59:17;4.53;;;1.42;;
18822;SDS011;9540;51.550;7.980;2022-10-22T13:01:47;5.55;;;1.95;;
18822;SDS011;9540;51.550;7.980;2022-10-22T13:04:21;9.23;;;1.67;;
18822;SDS011;9540;51.550;7.980;2022-10-22T13:07:04;3.05;;;1.50;;
18822;SDS011;9540;51.550;7.980;2022-10-22T13:09:42;4.80;;;2.17;;
18822;SDS011;9540;51.550;7.980;2022-10-22T13:12:10;5.25;;;1.73;;
18822;SDS011;9540;51.550;7.980;2022-10-22T13:14:42;6.40;;;1.77;;
18822;SDS011;9540;51.550;7.980;2022-10-22T13:17:11;6.28;;;1.70;;
18822;SDS011;9540;51.550;7.980;2022-10-22T13:19:41;8.30;;;1.90;;
18822;SDS011;9540;51.550;7.980;2022-10-22T13:22:23;8.02;;;1.85;;
18822;SDS011;9540;51.550;7.980;2022-10-22T13:24:52;8.20;;;1.85;;
18822;SDS011;9540;51.550;7.980;2022-10-22T13:27:20;2.78;;;1.67;;
18822;SDS011;9540;51.550;7.980;2022-10-22T13:29:49;8.38;;;2.00;;
18822;SDS011;9540;51.550;7.980;2022-10-22T13:32:20;5.97;;;1.83;;
18822;SDS011;9540;51.550;7.980;2022-10-22T13:34:54;5.10;;;1.70;;
18822;SDS011;9540;51.550;7.980;2022-10-22T13:37:22;12.38;;;1.95;;
18822;SDS011;9540;51.550;7.980;2022-10-22T13:39:50;3.97;;;1.60;;
18822;SDS011;9540;51.550;7.980;2022-10-22T13:42:17;8.20;;;1.55;;
18822;SDS011;9540;51.550;7.980;2022-10-22T13:44:44;8.68;;;2.20;;
18822;SDS011;9540;51.550;7.980;2022-10-22T13:47:15;5.85;;;1.40;;
18822;SDS011;9540;51.550;7.980;2022-10-22T13:49:50;9.43;;;1.98;;
18822;SDS011;9540;51.550;7.980;2022-10-22T13:52:24;5.63;;;1.65;;
18822;SDS011;9540;51.550;7.980;2022-10-22T13:54:59;3.95;;;1.40;;
18822;SDS011;9540;51.550;7.980;2022-10-22T13:57:26;9.38;;;1.75;;
18822;SDS011;9540;51.550;7.980;2022-10-22T13:59:53;6.28;;;1.95;;
18822;SDS011;9540;51.550;7.980;2022-10-22T14:02:21;2.15;;;1.45;;
18822;SDS011;9540;51.550;7.980;2022-10-22T14:04:49;4.28;;;1.42;;
18822;SDS011;9540;51.550;7.980;2022-10-22T14:07:16;7.68;;;1.83;;
18822;SDS011;9540;51.550;7.980;2022-10-22T14:09:43;5.70;;;1.55;;
18822;SDS011;9540;51.550;7.980;2022-10-22T14:12:11;10.63;;;3.08;;
18822;SDS011;9540;51.550;7.980;2022-10-22T14:14:39;4.95;;;1.50;;
18822;SDS011;9540;51.550;7.980;2022-10-22T14:17:07;8.43;;;1.70;;
18822;SDS011;9540;51.550;7.980;2022-10-22T14:19:41;3.65;;;1.30;;
18822;SDS011;9540;51.550;7.980;2022-10-22T14:22:12;6.18;;;1.60;;
18822;SDS011;9540;51.550;7.980;2022-10-22T14:24:40;3.42;;;1.20;;
18822;SDS011;9540;51.550;7.980;2022-10-22T14:27:07;5.38;;;1.40;;
18822;SDS011;9540;51.550;7.980;2022-10-22T14:29:36;7.53;;;1.20;;
18822;SDS011;9540;51.550;7.980;2022-10-22T14:32:05;8.13;;;1.88;;
18822;SDS011;9540;51.550;7.980;2022-10-22T14:34:37;3.03;;;1.20;;
18822;SDS011;9540;51.550;7.980;2022-10-22T14:37:07;2.58;;;1.40;;
18822;SDS011;9540;51.550;7.980;2022-10-22T14:39:42;4.32;;;1.58;;
18822;SDS011;9540;51.550;7.980;2022-10-22T14:42:11;7.18;;;1.77;;
18822;SDS011;9540;51.550;7.980;2022-10-22T14:44:40;6.30;;;1.52;;
18822;SDS011;9540;51.550;7.980;2022-10-22T14:47:07;6.90;;;1.77;;
18822;SDS011;9540;51.550;7.980;2022-10-22T14:49:34;6.10;;;1.65;;
18822;SDS011;9540;51.550;7.980;2022-10-22T14:52:01;10.23;;;1.52;;
18822;SDS011;9540;51.550;7.980;2022-10-22T14:54:29;5.28;;;1.67;;
18822;SDS011;9540;51.550;7.980;2022-10-22T14:56:57;8.23;;;1.50;;
18822;SDS011;9540;51.550;7.980;2022-10-22T14:59:24;9.60;;;1.40;;
18822;SDS011;9540;51.550;7.980;2022-10-22T15:01:51;6.32;;;1.70;;
18822;SDS011;9540;51.550;7.980;2022-10-22T15:04:18;5.13;;;1.55;;
18822;SDS011;9540;51.550;7.980;2022-10-22T15:06:45;5.38;;;1.30;;
18822;SDS011;9540;51.550;7.980;2022-10-22T15:09:12;3.03;;;1.23;;
18822;SDS011;9540;51.550;7.980;2022-10-22T15:11:40;5.25;;;1.50;;
18822;SDS011;9540;51.550;7.980;2022-10-22T15:14:07;3.25;;;1.17;;
18822;SDS011;9540;51.550;7.980;2022-10-22T15:16:34;4.93;;;1.70;;
18822;SDS011;9540;51.550;7.980;2022-10-22T15:19:01;7.90;;;1.30;;
18822;SDS011;9540;51.550;7.980;2022-10-22T15:21:28;4.47;;;1.25;;
18822;SDS011;9540;51.550;7.980;2022-10-22T15:23:55;5.47;;;1.48;;
18822;SDS011;9540;51.550;7.980;2022-10-22T15:26:22;3.38;;;1.20;;